createdAt,value
2018-12-14T00:00:27.880Z,0.63
2018-12-14T00:02:55.923Z,0.65
2018-12-14T00:05:24.390Z,0.64
2018-12-14T00:07:52.558Z,0.79
2018-12-14T00:10:20.625Z,0.68
2018-12-14T00:12:48.679Z,0.62
2018-12-14T00:15:16.774Z,0.76
2018-12-14T00:17:44.903Z,0.85
2018-12-14T00:20:12.954Z,0.57
2018-12-14T00:22:41.026Z,0.62
2018-12-14T00:25:09.438Z,0.55
2018-12-14T00:27:37.559Z,0.53
2018-12-14T00:30:06.395Z,0.60
2018-12-14T00:32:34.442Z,0.50
2018-12-14T00:35:02.507Z,0.54
2018-12-14T00:37:31.013Z,0.61
2018-12-14T00:39:59.066Z,0.55
2018-12-14T00:42:27.147Z,0.58
2018-12-14T00:44:55.323Z,0.46
2018-12-14T00:47:23.386Z,0.49
2018-12-14T00:49:51.484Z,0.54
2018-12-14T00:52:20.462Z,0.60
2018-12-14T00:54:48.507Z,0.75
2018-12-14T00:57:16.687Z,0.65
2018-12-14T00:59:44.775Z,0.69
2018-12-14T01:02:14.736Z,0.58
2018-12-14T01:04:42.778Z,0.64
2018-12-14T01:07:10.838Z,0.65
2018-12-14T01:09:38.894Z,0.58
2018-12-14T01:12:06.967Z,0.70
2018-12-14T01:14:35.247Z,0.67
2018-12-14T01:17:03.395Z,0.53
2018-12-14T01:19:31.462Z,0.57
2018-12-14T01:21:59.614Z,0.62
2018-12-14T01:24:27.725Z,0.55
2018-12-14T01:26:55.894Z,0.45
2018-12-14T01:29:23.978Z,0.55
2018-12-14T01:31:52.410Z,0.47
2018-12-14T01:34:20.543Z,0.48
2018-12-14T01:36:48.622Z,0.64
2018-12-14T01:39:16.782Z,0.60
2018-12-14T01:41:44.835Z,0.54
2018-12-14T01:44:12.928Z,0.56
2018-12-14T01:46:41.407Z,0.48
2018-12-14T01:49:09.471Z,0.51
2018-12-14T01:51:37.736Z,0.48
2018-12-14T01:54:05.783Z,0.57
2018-12-14T01:56:33.902Z,0.61
2018-12-14T01:59:01.964Z,0.51
2018-12-14T02:01:30.151Z,0.52
2018-12-14T02:03:58.195Z,0.63
2018-12-14T02:06:26.278Z,0.68
2018-12-14T02:08:54.466Z,0.47
2018-12-14T02:11:22.638Z,0.45
2018-12-14T02:13:50.715Z,0.44
2018-12-14T02:16:18.796Z,0.50
2018-12-14T02:18:46.918Z,0.53
2018-12-14T02:21:15.027Z,0.65
2018-12-14T02:23:43.070Z,0.47
2018-12-14T02:26:11.787Z,0.64
2018-12-14T02:28:40.239Z,0.72
2018-12-14T02:31:08.300Z,0.52
2018-12-14T02:33:36.718Z,0.67
2018-12-14T02:36:04.897Z,0.47
2018-12-14T02:38:32.968Z,0.48
2018-12-14T02:41:01.025Z,0.55
2018-12-14T02:43:30.476Z,0.60
2018-12-14T02:45:58.573Z,0.66
2018-12-14T02:48:26.637Z,0.71
2018-12-14T02:50:54.752Z,0.72
2018-12-14T02:53:22.794Z,0.57
2018-12-14T02:55:51.038Z,0.59
2018-12-14T02:58:19.297Z,0.72
2018-12-14T03:00:47.333Z,0.78
2018-12-14T03:03:15.404Z,0.57
2018-12-14T03:05:43.588Z,0.57
2018-12-14T03:08:11.659Z,0.50
2018-12-14T03:10:39.724Z,0.62
2018-12-14T03:13:07.894Z,0.49
2018-12-14T03:15:35.970Z,0.57
2018-12-14T03:18:04.025Z,0.67
2018-12-14T03:20:32.286Z,0.56
2018-12-14T03:23:00.371Z,0.54
2018-12-14T03:25:28.443Z,0.53
2018-12-14T03:27:56.535Z,0.56
2018-12-14T03:30:24.584Z,0.54
2018-12-14T03:32:52.742Z,0.47
2018-12-14T03:35:21.162Z,0.54
2018-12-14T03:37:49.223Z,0.42
2018-12-14T03:40:17.283Z,0.55
2018-12-14T03:42:45.393Z,0.55
2018-12-14T03:45:13.437Z,0.48
2018-12-14T03:47:41.606Z,0.47
2018-12-14T03:50:09.793Z,0.54
2018-12-14T03:52:37.842Z,0.46
2018-12-14T03:55:06.253Z,0.55
2018-12-14T03:57:34.337Z,0.47
2018-12-14T04:00:02.444Z,0.55
2018-12-14T04:02:30.515Z,0.45
2018-12-14T04:04:59.426Z,0.52
2018-12-14T04:07:27.640Z,0.65
2018-12-14T04:09:55.707Z,0.72
2018-12-14T04:12:23.799Z,0.60
2018-12-14T04:14:51.838Z,0.57
2018-12-14T04:17:19.888Z,0.70
2018-12-14T04:19:47.978Z,0.74
2018-12-14T04:22:16.067Z,0.70
2018-12-14T04:24:44.141Z,0.47
2018-12-14T04:27:12.234Z,0.64
2018-12-14T04:29:40.480Z,0.52
2018-12-14T04:32:09.028Z,0.75
2018-12-14T04:34:37.227Z,0.64
2018-12-14T04:37:05.608Z,0.81
2018-12-14T04:39:33.659Z,0.80
2018-12-14T04:42:01.871Z,0.85
2018-12-14T04:44:30.120Z,0.59
2018-12-14T04:46:58.685Z,0.67
2018-12-14T04:49:27.025Z,0.68
2018-12-14T04:51:55.061Z,0.54
2018-12-14T04:54:23.222Z,0.51
2018-12-14T04:56:51.344Z,0.48
2018-12-14T04:59:19.426Z,0.50
2018-12-14T05:01:47.496Z,0.61
2018-12-14T05:04:15.628Z,0.58
2018-12-14T05:06:43.704Z,0.58
2018-12-14T05:09:11.754Z,0.55
2018-12-14T05:11:39.839Z,0.54
2018-12-14T05:14:07.917Z,0.52
2018-12-14T05:16:35.979Z,0.58
2018-12-14T05:19:04.075Z,0.59
2018-12-14T05:21:32.222Z,0.60
2018-12-14T05:24:00.290Z,0.59
2018-12-14T05:26:29.043Z,0.49
2018-12-14T05:28:57.382Z,0.52
2018-12-14T05:31:25.432Z,0.43
2018-12-14T05:33:53.548Z,0.42
2018-12-14T05:36:21.575Z,0.52
2018-12-14T05:38:49.751Z,0.59
2018-12-14T05:41:17.842Z,0.55
2018-12-14T05:43:46.038Z,0.38
2018-12-14T05:46:14.582Z,0.49
2018-12-14T05:48:42.655Z,0.48
2018-12-14T05:51:10.723Z,0.49
2018-12-14T05:53:39.107Z,0.76
2018-12-14T05:56:07.153Z,0.52
2018-12-14T05:58:35.246Z,0.47
2018-12-14T06:01:03.381Z,0.62
2018-12-14T06:03:31.568Z,0.53
2018-12-14T06:05:59.766Z,0.38
2018-12-14T06:08:27.879Z,0.41
2018-12-14T06:10:55.974Z,0.50
2018-12-14T06:13:24.059Z,0.43
2018-12-14T06:15:52.151Z,0.50
2018-12-14T06:18:20.200Z,0.58
2018-12-14T06:20:48.294Z,0.57
2018-12-14T06:23:16.366Z,0.45
2018-12-14T06:25:44.535Z,0.52
2018-12-14T06:28:12.612Z,0.39
2018-12-14T06:30:40.680Z,0.46
2018-12-14T06:33:08.793Z,0.62
2018-12-14T06:35:36.984Z,0.43
2018-12-14T06:38:05.079Z,0.53
2018-12-14T06:40:33.364Z,0.37
2018-12-14T06:43:01.559Z,0.46
2018-12-14T06:45:30.044Z,0.42
2018-12-14T06:47:58.144Z,0.43
2018-12-14T06:50:28.314Z,0.61
2018-12-14T06:52:56.887Z,0.67
2018-12-14T06:55:24.954Z,0.70
2018-12-14T06:57:53.338Z,0.69
2018-12-14T07:00:21.430Z,0.51
2018-12-14T07:02:49.544Z,0.49
2018-12-14T07:05:17.645Z,0.62
2018-12-14T07:07:45.743Z,0.48
2018-12-14T07:10:13.782Z,0.65
2018-12-14T07:12:41.879Z,0.56
2018-12-14T07:15:10.142Z,0.80
2018-12-14T07:17:38.227Z,0.77
2018-12-14T07:20:07.027Z,0.69
2018-12-14T07:22:35.136Z,0.69
2018-12-14T07:25:04.489Z,0.59
2018-12-14T07:27:32.830Z,0.60
2018-12-14T07:30:00.988Z,0.66
2018-12-14T07:32:29.063Z,0.73
2018-12-14T07:34:57.100Z,0.67
2018-12-14T07:37:25.155Z,0.70
2018-12-14T07:39:53.582Z,0.52
2018-12-14T07:42:21.766Z,0.62
2018-12-14T07:44:50.057Z,0.72
2018-12-14T07:47:18.443Z,0.55
2018-12-14T07:49:46.505Z,0.65
2018-12-14T07:52:14.601Z,0.68
2018-12-14T07:54:42.799Z,0.88
2018-12-14T07:57:10.914Z,0.52
2018-12-14T07:59:39.015Z,0.75
2018-12-14T08:02:07.094Z,0.71
2018-12-14T08:04:35.535Z,0.52
2018-12-14T08:07:03.633Z,0.81
2018-12-14T08:09:31.711Z,0.82
2018-12-14T08:11:59.904Z,0.68
2018-12-14T08:14:28.067Z,0.94
2018-12-14T08:16:56.168Z,0.85
2018-12-14T08:19:24.215Z,0.82
2018-12-14T08:21:52.259Z,0.87
2018-12-14T08:24:20.382Z,0.78
2018-12-14T08:26:48.523Z,0.65
2018-12-14T08:29:16.587Z,0.72
2018-12-14T08:31:44.682Z,0.68
2018-12-14T08:34:12.751Z,0.76
2018-12-14T08:36:40.966Z,0.69
2018-12-14T08:39:09.705Z,0.61
2018-12-14T08:41:38.055Z,0.61
2018-12-14T08:44:06.618Z,0.84
2018-12-14T08:46:34.856Z,0.92
2018-12-14T08:49:03.483Z,0.86
2018-12-14T08:51:31.587Z,0.87
2018-12-14T08:53:59.668Z,0.84
2018-12-14T08:56:27.747Z,0.88
2018-12-14T08:58:55.790Z,0.94
2018-12-14T09:01:24.096Z,1.13
2018-12-14T09:03:52.167Z,0.73
2018-12-14T09:06:20.239Z,0.82
2018-12-14T09:08:48.302Z,0.81
2018-12-14T09:11:16.362Z,1.03
2018-12-14T09:13:47.833Z,1.11
2018-12-14T09:16:14.519Z,1.01
2018-12-14T09:18:42.647Z,0.88
2018-12-14T09:21:10.731Z,0.75
2018-12-14T09:23:38.832Z,0.98
2018-12-14T09:26:07.072Z,0.93
2018-12-14T09:28:35.602Z,0.81
2018-12-14T09:31:04.066Z,0.89
2018-12-14T09:33:32.114Z,1.08
2018-12-14T09:36:00.159Z,1.16
2018-12-14T09:38:28.249Z,0.91
2018-12-14T09:40:56.321Z,0.99
2018-12-14T09:43:24.375Z,0.93
2018-12-14T09:45:53.535Z,0.91
2018-12-14T09:48:21.623Z,0.87
2018-12-14T09:50:49.707Z,1.07
2018-12-14T09:53:18.098Z,1.33
2018-12-14T09:55:46.348Z,1.45
2018-12-14T09:58:14.419Z,1.12
2018-12-14T10:00:42.500Z,0.83
2018-12-14T10:03:10.675Z,1.13
2018-12-14T10:05:38.771Z,1.22
2018-12-14T10:08:07.100Z,0.87
2018-12-14T10:10:35.379Z,1.14
2018-12-14T10:13:03.440Z,1.20
2018-12-14T10:15:31.535Z,1.47
2018-12-14T10:17:59.780Z,1.17
2018-12-14T10:20:27.913Z,1.12
2018-12-14T10:22:56.025Z,0.94
2018-12-14T10:25:24.140Z,1.12
2018-12-14T10:27:52.207Z,1.15
2018-12-14T10:30:20.303Z,1.22
2018-12-14T10:32:48.366Z,1.19
2018-12-14T10:35:17.443Z,1.23
2018-12-14T10:37:45.514Z,1.38
2018-12-14T10:40:13.667Z,1.18
2018-12-14T10:42:41.784Z,0.97
2018-12-14T10:45:10.143Z,1.07
2018-12-14T10:47:38.947Z,1.15
2018-12-14T10:50:08.294Z,1.13
2018-12-14T10:52:36.366Z,1.09
2018-12-14T10:55:06.331Z,0.99
2018-12-14T10:57:34.686Z,0.85
2018-12-14T11:00:03.253Z,1.11
2018-12-14T11:02:31.470Z,1.02
2018-12-14T11:04:59.536Z,1.11
2018-12-14T11:07:27.616Z,1.07
2018-12-14T11:09:55.692Z,1.17
2018-12-14T11:12:23.793Z,1.13
2018-12-14T11:14:51.827Z,1.10
2018-12-14T11:17:19.946Z,1.24
2018-12-14T11:19:48.271Z,1.09
2018-12-14T11:22:16.332Z,1.02
2018-12-14T11:24:44.431Z,1.05
2018-12-14T11:27:12.595Z,1.18
2018-12-14T11:29:40.984Z,0.97
2018-12-14T11:32:09.561Z,0.86
2018-12-14T11:34:37.624Z,0.96
2018-12-14T11:37:05.699Z,1.18
2018-12-14T11:39:33.758Z,1.09
2018-12-14T11:42:01.843Z,1.06
2018-12-14T11:44:29.920Z,1.09
2018-12-14T11:46:57.980Z,1.04
2018-12-14T11:49:26.267Z,0.82
2018-12-14T11:51:54.339Z,0.99
2018-12-14T11:54:22.797Z,0.92
2018-12-14T11:56:50.889Z,1.02
2018-12-14T11:59:19.372Z,1.06
2018-12-14T12:01:48.043Z,0.75
2018-12-14T12:04:16.398Z,0.92
2018-12-14T12:06:44.495Z,0.99
2018-12-14T12:09:12.568Z,1.21
2018-12-14T12:11:40.831Z,1.20
2018-12-14T12:14:08.885Z,1.33
2018-12-14T12:16:36.958Z,1.00
2018-12-14T12:19:05.034Z,0.94
2018-12-14T12:21:33.575Z,0.94
2018-12-14T12:24:01.711Z,0.78
2018-12-14T12:26:29.795Z,0.70
2018-12-14T12:28:57.930Z,0.85
2018-12-14T12:31:26.083Z,0.92
2018-12-14T12:33:54.179Z,0.78
2018-12-14T12:36:22.227Z,0.98
2018-12-14T12:38:50.359Z,0.85
2018-12-14T12:41:18.403Z,0.69
2018-12-14T12:43:46.545Z,0.94
2018-12-14T12:46:14.668Z,1.01
2018-12-14T12:48:43.135Z,1.28
2018-12-14T12:51:11.296Z,1.06
2018-12-14T12:53:39.498Z,0.92
2018-12-14T12:56:07.809Z,0.96
2018-12-14T12:58:35.931Z,0.88
2018-12-14T13:01:04.216Z,0.94
2018-12-14T13:03:32.300Z,0.93
2018-12-14T13:06:00.467Z,0.90
2018-12-14T13:08:28.613Z,1.00
2018-12-14T13:10:56.695Z,1.06
2018-12-14T13:13:24.770Z,1.06
2018-12-14T13:15:52.868Z,0.99
2018-12-14T13:18:20.955Z,1.02
2018-12-14T13:20:49.027Z,1.25
2018-12-14T13:23:17.071Z,0.75
2018-12-14T13:25:45.118Z,0.84
2018-12-14T13:28:13.571Z,0.93
2018-12-14T13:30:41.857Z,1.06
2018-12-14T13:33:10.070Z,1.05
2018-12-14T13:35:39.388Z,1.03
2018-12-14T13:38:07.525Z,0.86
2018-12-14T13:40:35.715Z,0.85
2018-12-14T13:43:04.909Z,0.85
2018-12-14T13:45:33.100Z,0.78
2018-12-14T13:48:01.242Z,0.90
2018-12-14T13:50:29.409Z,0.87
2018-12-14T13:52:57.762Z,0.95
2018-12-14T13:55:25.859Z,0.94
2018-12-14T13:57:53.926Z,0.94
2018-12-14T14:00:22.040Z,0.83
2018-12-14T14:02:50.112Z,1.20
2018-12-14T14:05:18.255Z,1.01
2018-12-14T14:07:46.452Z,0.97
2018-12-14T14:10:14.639Z,0.69
2018-12-14T14:12:42.686Z,0.89
2018-12-14T14:15:10.814Z,0.76
2018-12-14T14:17:38.873Z,0.71
2018-12-14T14:20:07.918Z,0.83
2018-12-14T14:22:36.631Z,0.70
2018-12-14T14:25:05.362Z,1.01
2018-12-14T14:27:33.540Z,0.90
2018-12-14T14:30:01.727Z,0.88
2018-12-14T14:32:29.767Z,0.92
2018-12-14T14:34:57.914Z,1.02
2018-12-14T14:37:25.995Z,0.90
2018-12-14T14:39:54.030Z,1.00
2018-12-14T14:42:22.102Z,0.96
2018-12-14T14:44:50.189Z,0.78
2018-12-14T14:47:18.301Z,0.80
2018-12-14T14:49:46.377Z,0.86
2018-12-14T14:52:14.484Z,0.70
2018-12-14T14:54:42.746Z,0.74
2018-12-14T14:57:10.847Z,0.72
2018-12-14T14:59:38.934Z,0.87
2018-12-14T15:02:07.097Z,0.81
2018-12-14T15:04:35.155Z,0.88
2018-12-14T15:07:03.239Z,0.76
2018-12-14T15:09:31.321Z,1.00
2018-12-14T15:11:59.383Z,1.06
2018-12-14T15:14:27.502Z,0.91
2018-12-14T15:16:55.568Z,0.94
2018-12-14T15:19:23.667Z,0.78
2018-12-14T15:21:51.873Z,0.91
2018-12-14T15:24:19.947Z,0.76
2018-12-14T15:26:48.095Z,0.68
2018-12-14T15:29:16.173Z,0.76
2018-12-14T15:31:45.017Z,0.63
2018-12-14T15:34:14.480Z,0.79
2018-12-14T15:36:42.968Z,0.47
2018-12-14T15:39:11.110Z,0.75
2018-12-14T15:41:39.171Z,0.84
2018-12-14T15:44:07.747Z,0.88
2018-12-14T15:46:35.840Z,0.75
2018-12-14T15:49:03.993Z,0.92
2018-12-14T15:51:32.631Z,0.71
2018-12-14T15:54:00.699Z,0.68
2018-12-14T15:56:28.878Z,0.64
2018-12-14T15:58:56.981Z,0.58
2018-12-14T16:01:25.947Z,0.51
2018-12-14T16:03:54.103Z,0.75
2018-12-14T16:06:22.287Z,0.67
2018-12-14T16:08:50.338Z,0.54
2018-12-14T16:11:18.419Z,0.50
2018-12-14T16:13:46.540Z,0.54
2018-12-14T16:16:14.742Z,0.57
2018-12-14T16:18:42.806Z,0.66
2018-12-14T16:21:11.058Z,0.73
2018-12-14T16:23:39.249Z,0.88
2018-12-14T16:26:07.409Z,0.45
2018-12-14T16:28:35.615Z,0.51
2018-12-14T16:31:03.707Z,0.55
2018-12-14T16:33:31.780Z,0.64
2018-12-14T16:36:00.043Z,0.50
2018-12-14T16:38:28.132Z,0.46
2018-12-14T16:40:56.363Z,0.66
2018-12-14T16:43:24.431Z,0.72
2018-12-14T16:45:52.527Z,0.65
2018-12-14T16:48:20.584Z,0.66
2018-12-14T16:50:48.699Z,0.60
2018-12-14T16:53:16.852Z,0.69
2018-12-14T16:55:45.421Z,0.84
2018-12-14T16:58:13.599Z,0.80
2018-12-14T17:00:41.654Z,0.66
2018-12-14T17:03:09.939Z,0.81
2018-12-14T17:05:38.039Z,0.98
2018-12-14T17:08:06.279Z,0.93
2018-12-14T17:10:34.354Z,1.00
2018-12-14T17:13:02.665Z,0.54
2018-12-14T17:15:33.368Z,0.65
2018-12-14T17:18:00.804Z,0.51
2018-12-14T17:20:28.976Z,0.53
2018-12-14T17:22:57.099Z,0.74
2018-12-14T17:25:25.462Z,0.95
2018-12-14T17:27:53.630Z,0.90
2018-12-14T17:30:21.723Z,0.63
2018-12-14T17:32:49.778Z,0.70
2018-12-14T17:35:17.855Z,0.82
2018-12-14T17:37:45.942Z,0.65
2018-12-14T17:40:14.087Z,0.81
2018-12-14T17:42:42.298Z,0.95
2018-12-14T17:45:10.763Z,0.92
2018-12-14T17:47:38.835Z,0.64
2018-12-14T17:50:07.847Z,0.81
2018-12-14T17:52:35.895Z,0.90
2018-12-14T17:55:04.354Z,0.53
2018-12-14T17:57:32.522Z,0.47
2018-12-14T18:00:00.746Z,0.59
2018-12-14T18:02:28.896Z,0.58
2018-12-14T18:04:56.967Z,0.61
2018-12-14T18:07:25.043Z,0.62
2018-12-14T18:09:53.083Z,0.50
2018-12-14T18:12:21.190Z,0.62
2018-12-14T18:14:49.319Z,0.74
2018-12-14T18:17:17.431Z,0.98
2018-12-14T18:19:45.497Z,0.94
2018-12-14T18:22:14.233Z,0.96
2018-12-14T18:24:42.266Z,1.07
2018-12-14T18:27:10.376Z,0.84
2018-12-14T18:29:38.459Z,0.87
2018-12-14T18:32:06.579Z,0.97
2018-12-14T18:34:34.849Z,1.16
2018-12-14T18:37:03.027Z,1.16
2018-12-14T18:39:31.270Z,1.10
2018-12-14T18:41:59.379Z,1.25
2018-12-14T18:44:27.548Z,0.78
2018-12-14T18:46:55.707Z,0.78
2018-12-14T18:49:24.170Z,0.81
2018-12-14T18:51:52.699Z,0.58
2018-12-14T18:54:20.771Z,0.76
2018-12-14T18:56:48.831Z,0.65
2018-12-14T18:59:17.116Z,0.67
2018-12-14T19:01:45.283Z,0.88
2018-12-14T19:04:13.518Z,0.66
2018-12-14T19:06:41.615Z,0.76
2018-12-14T19:09:09.755Z,0.78
2018-12-14T19:11:37.963Z,0.74
2018-12-14T19:14:06.025Z,0.62
2018-12-14T19:16:34.485Z,0.76
2018-12-14T19:19:02.915Z,0.91
2018-12-14T19:21:30.966Z,0.86
2018-12-14T19:23:59.039Z,0.85
2018-12-14T19:26:27.111Z,0.75
2018-12-14T19:28:55.178Z,0.81
2018-12-14T19:31:23.256Z,0.81
2018-12-14T19:33:51.347Z,0.52
2018-12-14T19:36:19.426Z,0.38
2018-12-14T19:38:47.514Z,0.45
2018-12-14T19:41:15.606Z,0.61
2018-12-14T19:43:43.700Z,0.68
2018-12-14T19:46:11.774Z,0.57
2018-12-14T19:48:40.175Z,0.48
2018-12-14T19:51:08.247Z,0.64
2018-12-14T19:53:36.417Z,0.62
2018-12-14T19:56:04.898Z,0.61
2018-12-14T19:58:32.970Z,0.65
2018-12-14T20:01:01.119Z,0.62
2018-12-14T20:03:29.523Z,0.63
2018-12-14T20:05:57.577Z,0.77
2018-12-14T20:08:25.747Z,0.69
2018-12-14T20:10:53.839Z,0.86
2018-12-14T20:13:21.899Z,0.84
2018-12-14T20:15:49.970Z,0.80
2018-12-14T20:18:18.074Z,0.99
2018-12-14T20:20:46.112Z,0.63
2018-12-14T20:23:14.191Z,0.79
2018-12-14T20:25:42.267Z,0.71
2018-12-14T20:28:10.348Z,0.67
2018-12-14T20:30:38.398Z,0.72
2018-12-14T20:33:06.479Z,0.84
2018-12-14T20:35:34.642Z,0.90
2018-12-14T20:38:03.103Z,0.92
2018-12-14T20:40:31.411Z,1.15
2018-12-14T20:42:59.687Z,0.69
2018-12-14T20:45:27.751Z,0.47
2018-12-14T20:47:55.922Z,0.48
2018-12-14T20:50:23.994Z,0.72
2018-12-14T20:52:52.064Z,0.75
2018-12-14T20:55:20.138Z,0.57
2018-12-14T20:57:48.215Z,0.71
2018-12-14T21:00:16.294Z,0.78
2018-12-14T21:02:44.463Z,1.01
2018-12-14T21:05:12.949Z,0.76
2018-12-14T21:07:41.423Z,0.91
2018-12-14T21:10:09.655Z,0.87
2018-12-14T21:12:37.830Z,0.44
2018-12-14T21:15:06.958Z,0.53
2018-12-14T21:17:35.105Z,0.73
2018-12-14T21:20:04.023Z,0.71
2018-12-14T21:22:33.430Z,0.57
2018-12-14T21:25:01.509Z,0.67
2018-12-14T21:27:29.843Z,0.73
2018-12-14T21:29:57.924Z,0.52
2018-12-14T21:32:26.007Z,0.50
2018-12-14T21:34:54.079Z,0.60
2018-12-14T21:37:22.335Z,0.60
2018-12-14T21:39:50.394Z,0.62
2018-12-14T21:42:18.519Z,0.48
2018-12-14T21:44:46.582Z,0.50
2018-12-14T21:47:14.935Z,0.53
2018-12-14T21:49:42.997Z,0.66
2018-12-14T21:52:11.219Z,0.76
2018-12-14T21:54:39.310Z,0.68
2018-12-14T21:57:07.460Z,0.71
2018-12-14T21:59:35.523Z,0.73
2018-12-14T22:02:03.578Z,0.81
2018-12-14T22:04:31.784Z,0.93
2018-12-14T22:07:00.118Z,0.61
2018-12-14T22:09:28.300Z,0.89
2018-12-14T22:11:56.368Z,0.73
2018-12-14T22:14:24.675Z,0.68
2018-12-14T22:16:52.747Z,0.61
2018-12-14T22:19:20.800Z,0.62
2018-12-14T22:21:48.887Z,0.71
2018-12-14T22:24:17.104Z,0.33
2018-12-14T22:26:45.179Z,0.40
2018-12-14T22:29:13.222Z,0.51
2018-12-14T22:31:41.318Z,0.44
2018-12-14T22:34:09.394Z,0.37
2018-12-14T22:36:37.903Z,0.35
2018-12-14T22:39:07.227Z,0.22
2018-12-14T22:41:36.400Z,0.23
2018-12-14T22:44:04.552Z,0.36
2018-12-14T22:46:32.647Z,0.47
2018-12-14T22:49:00.756Z,0.50
2018-12-14T22:51:28.887Z,0.49
2018-12-14T22:53:56.951Z,0.51
2018-12-14T22:56:25.037Z,0.48
2018-12-14T22:58:53.147Z,0.57
2018-12-14T23:01:21.298Z,0.40
2018-12-14T23:03:49.386Z,0.31
2018-12-14T23:06:17.475Z,0.53
2018-12-14T23:08:45.798Z,0.67
2018-12-14T23:11:13.883Z,0.52
2018-12-14T23:13:41.963Z,0.68
2018-12-14T23:16:10.043Z,0.38
2018-12-14T23:18:38.669Z,0.32
2018-12-14T23:21:07.000Z,0.46
2018-12-14T23:23:35.100Z,0.47
2018-12-14T23:26:03.399Z,0.49
2018-12-14T23:28:31.774Z,0.38
2018-12-14T23:30:59.846Z,0.63
2018-12-14T23:33:27.883Z,0.56
2018-12-14T23:35:55.967Z,0.42
2018-12-14T23:38:24.014Z,0.27
2018-12-14T23:40:52.104Z,0.15
2018-12-14T23:43:20.187Z,0.26
2018-12-14T23:45:48.278Z,0.43
2018-12-14T23:48:16.350Z,0.39
2018-12-14T23:50:44.479Z,0.66
2018-12-14T23:53:12.555Z,0.62
2018-12-14T23:55:42.185Z,0.38
2018-12-14T23:58:10.503Z,0.39
